createdAt,value
2023-09-30T00:01:52.309Z,70.35788407037032
2023-09-30T00:05:11.708Z,70.32964212129899
2023-09-30T00:08:31.469Z,70.45410316008649
2023-09-30T00:12:00.670Z,70.37443140024196
2023-09-30T00:15:20.171Z,70.39739011654433
2023-09-30T00:18:39.365Z,70.53431141131908
2023-09-30T00:21:59.729Z,70.55001533384586
2023-09-30T00:25:19.180Z,70.33257510917718
2023-09-30T00:31:47.512Z,70.31943162434574
2023-09-30T00:35:06.962Z,70.55684589282059
2023-09-30T00:38:26.852Z,70.48421887615595
2023-09-30T00:41:46.628Z,70.33269777648343
2023-09-30T00:45:06.371Z,70.31264604086427
2023-09-30T00:48:27.192Z,70.35585395236905
2023-09-30T00:55:31.039Z,70.45319332763742
2023-09-30T00:58:50.922Z,70.23830398656648
2023-09-30T01:05:24.550Z,70.30461446609327
2023-09-30T01:08:44.444Z,70.1966587184364
2023-09-30T01:12:04.012Z,70.51067392144904
2023-09-30T01:15:23.385Z,70.34838700913022
2023-09-30T01:18:43.179Z,70.48667337647188
2023-09-30T01:22:03.359Z,70.61072183423438
2023-09-30T01:25:23.342Z,70.52593147254554
2023-09-30T01:28:43.442Z,70.50407250044516
2023-09-30T01:32:02.901Z,70.32595414651132
2023-09-30T01:35:22.180Z,70.550738745376
2023-09-30T01:38:41.862Z,70.476472476498
2023-09-30T01:42:01.042Z,70.4863149502619
2023-09-30T01:45:20.930Z,70.68444706427168
2023-09-30T01:48:40.731Z,70.6315992893053
2023-09-30T01:52:00.161Z,70.70087901722343
2023-09-30T01:55:19.951Z,70.61949077200089
2023-09-30T01:58:39.740Z,70.59979566914748
2023-09-30T02:03:38.418Z,70.54418282918384
2023-09-30T02:06:58.207Z,70.45845868035252
2023-09-30T02:10:18.099Z,70.29712366200793
2023-09-30T02:13:38.190Z,70.30180843720979
2023-09-30T02:16:57.966Z,70.50253030565106
2023-09-30T02:20:17.834Z,70.36570371333616
2023-09-30T02:23:36.810Z,70.45628793891592
2023-09-30T02:26:55.567Z,70.1775532010478
2023-09-30T02:30:15.757Z,70.20456643998325
2023-09-30T02:36:41.052Z,70.2846781513762
2023-09-30T02:41:04.779Z,70.10117903735818
2023-09-30T02:44:24.968Z,70.23841105540214
2023-09-30T02:47:44.572Z,70.29932814133318
2023-09-30T02:51:04.520Z,70.51895167316573
2023-09-30T02:54:24.362Z,70.5381189760229
2023-09-30T02:57:43.304Z,70.54246936300203
2023-09-30T03:01:03.233Z,70.63547916581982
2023-09-30T03:04:23.270Z,70.60543146719388
2023-09-30T03:07:43.243Z,70.78632512262001
2023-09-30T03:11:02.699Z,71.06145280128715
2023-09-30T03:14:23.006Z,69.70644211214395
2023-09-30T03:17:42.102Z,68.48127242109818
2023-09-30T03:21:02.153Z,67.88841200611643
2023-09-30T03:24:22.467Z,67.89204095639248
2023-09-30T03:28:41.726Z,68.67601140306817
2023-09-30T03:32:01.402Z,69.0271245788574
2023-09-30T03:36:39.749Z,68.5887348276921
2023-09-30T03:39:59.517Z,69.04770540583048
2023-09-30T03:43:19.274Z,69.3237861813272
2023-09-30T03:46:38.522Z,69.62357355981891
2023-09-30T03:49:58.133Z,69.8399230963247
2023-09-30T03:53:18.015Z,70.00828621904756
2023-09-30T03:56:37.697Z,70.30125120108559
2023-09-30T04:00:40.216Z,70.43336015824335
2023-09-30T04:03:59.887Z,70.54730266620514
2023-09-30T04:07:19.483Z,70.7222820425315
2023-09-30T04:10:39.319Z,70.88279345922047
2023-09-30T04:13:58.561Z,70.96754102089368
2023-09-30T04:17:18.788Z,71.14409859754745
2023-09-30T04:20:38.380Z,71.21550342072467
2023-09-30T04:23:58.288Z,71.24843804801897
2023-09-30T04:27:18.289Z,71.41177753878468
2023-09-30T04:30:38.104Z,71.47869660354696
2023-09-30T04:33:57.583Z,71.56613780774107
2023-09-30T04:37:16.973Z,71.66003045037162
2023-09-30T04:40:36.640Z,71.78440381976874
2023-09-30T04:43:56.721Z,71.78234454372048
2023-09-30T04:47:16.913Z,71.8183432122771
2023-09-30T04:52:34.272Z,71.87160675593756
2023-09-30T04:55:54.235Z,71.87488940385226
2023-09-30T04:59:13.104Z,71.87006259770598
2023-09-30T05:02:32.808Z,72.045926433701
2023-09-30T05:05:52.577Z,72.15298533731398
2023-09-30T05:09:11.960Z,72.2405247432105
2023-09-30T05:12:31.747Z,72.31257212269297
2023-09-30T05:15:51.580Z,72.39660507783394
2023-09-30T05:19:11.811Z,72.35839059076035
2023-09-30T05:22:31.371Z,72.48460704864704
2023-09-30T05:31:53.046Z,72.58204115575249
2023-09-30T05:35:13.133Z,72.62905035649402
2023-09-30T05:38:32.706Z,72.7427574455989
2023-09-30T05:41:51.874Z,72.75618699650475
2023-09-30T05:45:12.187Z,72.76519163613109
2023-09-30T05:48:54.195Z,72.82614173320943
2023-09-30T05:52:14.684Z,72.83391128629412
2023-09-30T05:55:34.534Z,72.83759955253471
2023-09-30T05:58:53.922Z,72.91153041489616
2023-09-30T06:06:51.863Z,72.80008295847183
2023-09-30T06:10:11.967Z,72.81598170145682
2023-09-30T06:13:31.900Z,72.78321494443705
2023-09-30T06:16:51.397Z,72.88219953383854
2023-09-30T06:20:11.755Z,72.91873235588184
2023-09-30T06:23:31.435Z,73.04031589095217
2023-09-30T06:26:50.512Z,72.97321206642313
2023-09-30T06:30:10.431Z,73.07603946022907
2023-09-30T06:33:30.513Z,73.11443668296177
2023-09-30T06:39:24.866Z,73.23672591753508
2023-09-30T06:42:44.910Z,73.24488447732338
2023-09-30T06:46:03.803Z,73.25263157577851
2023-09-30T06:49:23.823Z,73.19196598462618
2023-09-30T06:52:43.785Z,73.27421093026372
2023-09-30T06:56:03.864Z,73.31027526481198
2023-09-30T06:59:24.096Z,73.36286810702276
2023-09-30T07:02:44.132Z,73.2792906280999
2023-09-30T07:06:03.763Z,73.48830566531959
2023-09-30T07:09:23.881Z,73.44125971718944
2023-09-30T07:12:43.710Z,73.45131279825108
2023-09-30T07:16:02.500Z,73.47531867785776
2023-09-30T07:19:22.283Z,73.30828386527784
2023-09-30T07:22:52.196Z,73.23574173991868
2023-09-30T07:26:18.664Z,73.25388126537034
2023-09-30T07:29:38.318Z,73.42887899218614
2023-09-30T07:32:58.253Z,73.57197643264666
2023-09-30T07:36:17.856Z,73.61857874991671
2023-09-30T07:42:19.486Z,73.6928040828822
2023-09-30T07:45:38.628Z,73.74745282556287
2023-09-30T07:48:58.506Z,73.73868217300526
2023-09-30T07:52:18.412Z,73.89431036112434
2023-09-30T07:55:37.359Z,73.8692080993379
2023-09-30T07:58:56.919Z,73.8531609396113
2023-09-30T08:02:56.488Z,73.88213828787451
2023-09-30T08:06:15.803Z,73.82009324008361
2023-09-30T08:09:35.519Z,73.75982818662246
2023-09-30T08:13:53.274Z,73.73965011397493
2023-09-30T08:17:13.712Z,73.78671395027047
2023-09-30T08:20:33.116Z,73.6835783931155
2023-09-30T08:23:52.978Z,73.70888304696498
2023-09-30T08:27:13.192Z,73.66975401557018
2023-09-30T08:30:32.559Z,73.75454957824566
2023-09-30T08:33:51.749Z,73.87027683749714
2023-09-30T08:37:11.907Z,73.91597067967147
2023-09-30T08:40:31.693Z,73.85189123756236
2023-09-30T08:43:50.774Z,73.70584718328932
2023-09-30T08:47:10.595Z,73.57643204985835
2023-09-30T08:50:29.806Z,73.53854496767073
2023-09-30T08:53:49.699Z,73.52389130765349
2023-09-30T08:57:10.170Z,73.54989946881761
2023-09-30T09:00:30.309Z,73.51640296943285
2023-09-30T09:03:49.505Z,73.54058718816984
2023-09-30T09:07:08.984Z,73.56797161479335
2023-09-30T09:10:27.993Z,73.56651912494868
2023-09-30T09:13:47.571Z,73.66882642335806
2023-09-30T09:17:07.644Z,73.71715491584749
2023-09-30T09:20:27.652Z,73.77273719647263
2023-09-30T09:25:50.204Z,73.75059553893311
2023-09-30T09:29:09.132Z,73.71708855524317
2023-09-30T09:33:06.636Z,73.69418966306912
2023-09-30T09:36:26.609Z,73.71754600894857
2023-09-30T09:39:46.250Z,73.79400349118549
2023-09-30T09:43:05.756Z,73.88835568430653
2023-09-30T09:48:37.380Z,73.99007261926913
2023-09-30T09:52:59.516Z,74.12949025848025
2023-09-30T09:57:52.050Z,74.04625283408164
2023-09-30T10:01:12.226Z,73.92357305150955
2023-09-30T10:04:31.896Z,73.85017783317004
2023-09-30T10:07:50.651Z,73.79070191281262
2023-09-30T10:15:37.695Z,73.7315838875668
2023-09-30T10:18:57.139Z,73.71914200192369
2023-09-30T10:22:17.596Z,73.56777362821062
2023-09-30T10:25:37.278Z,73.51135973173656
2023-09-30T10:28:57.096Z,74.36217795398446
2023-09-30T10:32:17.038Z,78.91947700716885
2023-09-30T10:35:37.015Z,80.93896379523812
2023-09-30T10:38:56.191Z,81.10621891176969
2023-09-30T10:46:52.062Z,79.86464422999073
2023-09-30T10:52:34.462Z,78.74398735460834
2023-09-30T10:55:54.535Z,77.96415009640464
2023-09-30T11:00:13.612Z,77.49837678273163
2023-09-30T11:03:33.472Z,77.06888058145613
2023-09-30T11:06:53.196Z,76.58758581024806
2023-09-30T11:10:13.001Z,76.47912984432044
2023-09-30T11:13:32.231Z,76.32482446190309
2023-09-30T11:16:51.749Z,76.00595334271618
2023-09-30T11:20:11.847Z,75.80567598507886
2023-09-30T11:23:31.191Z,75.7603913307779
2023-09-30T11:26:50.757Z,75.84520630876331
2023-09-30T11:30:10.516Z,75.53607549822289
2023-09-30T11:33:31.163Z,75.53551956191357
2023-09-30T11:36:50.471Z,75.36970540153396
2023-09-30T11:40:10.696Z,75.27500011413835
2023-09-30T11:43:30.363Z,75.34061570370324
2023-09-30T11:46:49.689Z,74.9844606403076
2023-09-30T11:50:09.119Z,74.74279055006392
2023-09-30T11:53:29.419Z,74.40632458701785
2023-09-30T11:56:49.088Z,74.29823068664147
2023-09-30T12:00:09.142Z,74.03264789582937
2023-09-30T12:03:28.782Z,73.96513572576468
2023-09-30T12:06:48.462Z,73.93131546478385
2023-09-30T12:10:07.856Z,74.16040644564947
2023-09-30T12:13:28.207Z,73.98065993819307
2023-09-30T12:16:48.338Z,73.95280678126963
2023-09-30T12:20:08.064Z,73.90413762754065
2023-09-30T12:23:28.065Z,73.68286104648416
2023-09-30T12:26:47.117Z,73.61387675367365
2023-09-30T12:30:06.702Z,73.335757192809
2023-09-30T12:33:38.996Z,73.4051075368166
2023-09-30T12:36:58.935Z,73.39394579439936
2023-09-30T12:42:34.873Z,73.38744137602725
2023-09-30T12:45:54.566Z,73.48542891039273
2023-09-30T12:49:14.718Z,73.48160521629487
2023-09-30T12:52:34.478Z,73.40683800314466
2023-09-30T12:55:56.107Z,73.5545742717677
2023-09-30T13:01:50.859Z,72.92190564104342
2023-09-30T13:05:10.980Z,73.23771919652266
2023-09-30T13:08:31.608Z,73.41512009113471
2023-09-30T13:11:50.783Z,73.28461019000034
2023-09-30T13:15:10.645Z,73.28528651033606
2023-09-30T13:18:30.462Z,73.32699225540537
2023-09-30T13:21:49.998Z,73.67747816772426
2023-09-30T13:25:09.765Z,73.69720494168064
2023-09-30T13:28:29.925Z,73.65806190278639
2023-09-30T13:31:49.201Z,73.63229895429127
2023-09-30T13:35:09.373Z,73.63306000200197
2023-09-30T13:38:28.733Z,73.58018311954943
2023-09-30T13:41:47.906Z,73.43900355126837
2023-09-30T13:45:07.682Z,73.31186188144942
2023-09-30T13:49:52.158Z,73.2104899799356
2023-09-30T13:53:12.162Z,73.22916327694956
2023-09-30T13:56:31.406Z,73.2002023355979
2023-09-30T13:59:50.977Z,73.18018725390503
2023-09-30T14:05:43.290Z,73.23408696139226
2023-09-30T14:09:02.506Z,73.28221463405968
2023-09-30T14:12:22.606Z,73.28281096282983
2023-09-30T14:15:41.623Z,73.27958815988273
2023-09-30T14:19:54.889Z,73.296012203381
2023-09-30T14:23:15.190Z,73.28413237071412
2023-09-30T14:26:34.554Z,73.25282507909083
2023-09-30T14:29:54.497Z,73.42463273944621
2023-09-30T14:33:14.162Z,73.36228974518485
2023-09-30T14:36:33.636Z,73.32094506524113
2023-09-30T14:39:53.311Z,73.31344669001126
2023-09-30T14:43:26.165Z,73.33904387361908
2023-09-30T14:46:45.754Z,73.25183851320683
2023-09-30T14:50:06.737Z,73.330121569021
2023-09-30T14:53:26.529Z,73.3578607048692
2023-09-30T14:56:46.115Z,73.22951746834794
2023-09-30T15:00:05.479Z,73.19467983912402
2023-09-30T15:03:25.001Z,73.16354569246589
2023-09-30T15:06:43.986Z,73.1297923314808
2023-09-30T15:10:03.827Z,73.08579235261266
2023-09-30T15:13:22.984Z,73.15874354063813
2023-09-30T15:16:43.133Z,73.2207477919254
2023-09-30T15:20:02.572Z,73.16266984469378
2023-09-30T15:23:22.623Z,73.1915226019459
2023-09-30T15:26:43.235Z,73.2811782878377
2023-09-30T15:30:02.908Z,73.25778259495769
2023-09-30T15:33:23.030Z,73.28161833895317
2023-09-30T15:36:42.622Z,73.28557406844003
2023-09-30T15:40:01.740Z,73.24919899383252
2023-09-30T15:43:21.638Z,73.20859406179406
2023-09-30T15:46:41.670Z,73.26695123604974
2023-09-30T15:50:01.453Z,73.25484366878696
2023-09-30T15:53:20.354Z,73.29160444538218
2023-09-30T15:56:53.945Z,73.31589934248896
2023-09-30T16:00:16.405Z,73.34098663107584
2023-09-30T16:03:36.125Z,73.33302080011187
2023-09-30T16:06:55.399Z,73.34130797374961
2023-09-30T16:10:16.519Z,73.27430079137854
2023-09-30T16:13:35.348Z,73.25958828953874
2023-09-30T16:20:11.392Z,73.28494667002946
2023-09-30T16:24:45.681Z,73.31313443974207
2023-09-30T16:28:05.689Z,73.3313601072998
2023-09-30T16:31:25.971Z,73.34759309216133
2023-09-30T16:34:45.389Z,73.37064194442718
2023-09-30T16:38:05.289Z,73.38112158823957
2023-09-30T16:41:24.449Z,73.39902703845232
2023-09-30T16:44:44.026Z,73.4115517997005
2023-09-30T16:48:03.026Z,73.43816346649534
2023-09-30T16:51:22.759Z,73.48408564387384
2023-09-30T16:54:42.635Z,73.52887310510272
2023-09-30T16:58:02.827Z,73.53693583114637
2023-09-30T17:01:23.092Z,73.47933347631925
2023-09-30T17:04:42.992Z,73.51643870236357
2023-09-30T17:09:57.633Z,73.51588131456073
2023-09-30T17:13:17.552Z,73.49777573643188
2023-09-30T17:19:39.050Z,73.49794901888453
2023-09-30T17:24:06.808Z,73.48027437958804
2023-09-30T17:27:25.769Z,73.52221246957768
2023-09-30T17:30:45.454Z,73.50390308841894
2023-09-30T17:34:05.276Z,73.50566457341398
2023-09-30T17:37:24.397Z,73.41088566720353
2023-09-30T17:43:59.191Z,73.51360679063028
2023-09-30T17:47:19.232Z,73.50605601956562
2023-09-30T17:50:38.720Z,73.41104559372607
2023-09-30T17:53:58.956Z,73.41133214928935
2023-09-30T17:58:32.216Z,73.51233350851818
2023-09-30T18:01:52.028Z,73.49206655130742
2023-09-30T18:09:58.863Z,73.52889636468228
2023-09-30T18:13:19.056Z,73.52351873827408
2023-09-30T18:16:38.869Z,73.5025427891376
2023-09-30T18:22:46.787Z,73.67413602138568
2023-09-30T18:26:05.760Z,73.84641886945936
2023-09-30T18:29:25.630Z,73.79996954859404
2023-09-30T18:32:45.082Z,73.86799027201627
2023-09-30T18:36:04.481Z,73.91883072547503
2023-09-30T18:39:45.483Z,73.89812157223524
2023-09-30T18:43:04.476Z,73.94899000409863
2023-09-30T18:46:24.262Z,73.98021529963226
2023-09-30T18:49:43.999Z,73.94576041503275
2023-09-30T18:53:03.211Z,74.01982171963697
2023-09-30T18:56:23.366Z,74.05144321947
2023-09-30T19:04:47.207Z,74.12353851516627
2023-09-30T19:08:06.735Z,74.26747673029668
2023-09-30T19:11:26.815Z,74.21803045641899
2023-09-30T19:14:46.090Z,74.19338148299309
2023-09-30T19:18:05.588Z,74.24002832544822
2023-09-30T19:21:24.545Z,74.26449740833361
2023-09-30T19:24:44.251Z,74.26374890996873
2023-09-30T19:28:04.122Z,74.20202484536134
2023-09-30T19:31:24.286Z,74.25056776018744
2023-09-30T19:34:43.875Z,74.27745892826213
2023-09-30T19:38:03.048Z,74.23484778761336
2023-09-30T19:41:22.815Z,74.22028693200674
2023-09-30T19:44:42.496Z,74.19401216246783
2023-09-30T19:48:01.700Z,74.31685078930717
2023-09-30T19:51:21.537Z,74.28377192840435
2023-09-30T19:54:41.266Z,74.31521821451284
2023-09-30T19:59:49.339Z,74.34650428687826
2023-09-30T20:03:09.190Z,74.33788822868443
2023-09-30T20:07:55.339Z,74.39924702030447
2023-09-30T20:11:15.209Z,74.43047299053798
2023-09-30T20:14:35.205Z,74.41090485684828
2023-09-30T20:17:54.811Z,74.44282694520236
2023-09-30T20:21:14.874Z,74.44207830477123
2023-09-30T20:24:34.137Z,74.39382100058349
2023-09-30T20:27:53.864Z,74.38436927528879
2023-09-30T20:31:13.655Z,74.39469309620733
2023-09-30T20:34:32.647Z,74.49203832653714
2023-09-30T20:37:51.624Z,74.4597191636791
2023-09-30T20:41:11.652Z,74.45205725270654
2023-09-30T20:44:31.074Z,74.45200185934836
2023-09-30T20:47:50.500Z,74.44284108363979
2023-09-30T20:51:09.814Z,74.28167770083662
2023-09-30T20:54:29.933Z,74.3608933293915
2023-09-30T20:57:49.746Z,74.40756741375137
2023-09-30T21:01:08.831Z,74.47555251913361
2023-09-30T21:04:28.504Z,74.47538790247212
2023-09-30T21:07:48.225Z,74.46477573814416
2023-09-30T21:11:07.946Z,74.49038272481889
2023-09-30T21:14:27.281Z,74.51025842097809
2023-09-30T21:17:46.902Z,74.47968161623972
2023-09-30T21:21:06.234Z,74.51512712912626
2023-09-30T21:26:28.702Z,74.53096756104783
2023-09-30T21:29:48.582Z,74.5185340581732
2023-09-30T21:33:08.250Z,74.4855774623189
2023-09-30T21:36:27.349Z,74.39926959963702
2023-09-30T21:39:46.671Z,74.36443954307776
2023-09-30T21:43:05.897Z,74.38841111339191
2023-09-30T21:46:25.742Z,74.37574186138126
2023-09-30T21:49:45.543Z,74.43455524249859
2023-09-30T21:53:04.502Z,74.40924710419789
2023-09-30T21:57:27.869Z,74.52699685851297
2023-09-30T22:06:14.207Z,74.49787631584631
2023-09-30T22:09:33.709Z,74.52415997717904
2023-09-30T22:12:52.547Z,74.49268567294432
2023-09-30T22:16:12.641Z,74.49586039774366
2023-09-30T22:19:32.496Z,74.49903826974553
2023-09-30T22:22:51.911Z,74.5333979064968
2023-09-30T22:26:11.258Z,74.48492762041894
2023-09-30T22:29:42.911Z,74.47733472294104
2023-09-30T22:33:02.070Z,74.47583435556601
2023-09-30T22:36:27.429Z,74.47146423520029
2023-09-30T22:39:55.181Z,74.51637895040005
2023-09-30T22:45:59.343Z,74.51027196694568
2023-09-30T22:49:19.236Z,74.44091511281144
2023-09-30T22:52:38.727Z,74.39528559559209
2023-09-30T22:55:58.221Z,74.42489697504327
2023-09-30T22:59:18.405Z,74.40225863005409
2023-09-30T23:02:37.820Z,74.41517933556726
2023-09-30T23:08:41.217Z,74.4414041034652
2023-09-30T23:12:00.777Z,74.47265025676566
2023-09-30T23:15:20.405Z,74.4793746110284
2023-09-30T23:18:40.628Z,74.42838973489725
2023-09-30T23:22:00.460Z,74.48256442278264
2023-09-30T23:28:27.343Z,74.42609756992223
2023-09-30T23:31:47.855Z,74.3767363874441
2023-09-30T23:35:07.063Z,74.46903242155794
2023-09-30T23:38:27.369Z,74.50519899357084
2023-09-30T23:41:47.027Z,74.4341083609417
2023-09-30T23:45:06.838Z,74.53045639404792
2023-09-30T23:48:26.252Z,74.45195460227558
2023-09-30T23:51:45.789Z,74.45412142798781
2023-09-30T23:55:05.709Z,74.49892467448915
2023-09-30T23:58:25.759Z,74.54337311637056
